Time;durP1;ratioP1;P1;durP2;ratioP2;P2;SDS_P1;SDS_P2;PMS_P1;PMS_P2;Temp;Humidity;BMP_temperature;BMP_pressure;BME280_temperature;BME280_humidity;BME280_pressure;Samples;Min_cycle;Max_cycle;Signal;HPM_P1;HPM_P2
2024/02/09 00:00:30;;;;;;;4.53;3.57;;;;;;;1.52;100.00;99098.00;6128393;23;20193;-76
2024/02/09 00:02:58;;;;;;;5.87;4.00;;;;;;;1.52;100.00;99096.16;6093919;23;20170;-77
2024/02/09 00:05:25;;;;;;;4.20;3.37;;;;;;;1.51;100.00;99084.22;6129974;23;20169;-77
2024/02/09 00:07:52;;;;;;;5.57;3.97;;;;;;;1.50;100.00;99087.91;6128909;23;20250;-76
2024/02/09 00:10:19;;;;;;;7.87;3.93;;;;;;;1.53;100.00;99094.34;6129110;23;20169;-77
2024/02/09 00:12:47;;;;;;;4.00;3.20;;;;;;;1.54;100.00;99098.47;6129424;23;20172;-76
2024/02/09 00:15:18;;;;;;;4.17;3.30;;;;;;;1.52;100.00;99074.59;6129521;23;20166;-77
2024/02/09 00:17:44;;;;;;;4.67;3.40;;;;;;;1.54;100.00;99070.63;6128980;23;20192;-77
2024/02/09 00:20:12;;;;;;;4.17;3.20;;;;;;;1.52;100.00;99070.16;6129256;23;20165;-76
2024/02/09 00:22:39;;;;;;;6.73;3.37;;;;;;;1.54;100.00;99077.66;6129314;23;20195;-77
2024/02/09 00:25:10;;;;;;;3.90;3.03;;;;;;;1.53;100.00;99066.50;6129101;23;20165;-77
2024/02/09 00:27:36;;;;;;;5.00;2.97;;;;;;;1.54;100.00;99057.63;6129350;23;20185;-76
2024/02/09 00:30:04;;;;;;;4.00;3.00;;;;;;;1.53;100.00;99058.69;6129019;23;20166;-77
2024/02/09 00:32:31;;;;;;;6.23;3.30;;;;;;;1.54;100.00;99052.44;6128172;23;20157;-76
2024/02/09 00:34:57;;;;;;;4.77;3.20;;;;;;;1.54;100.00;99054.25;6129331;23;20169;-76
2024/02/09 00:37:24;;;;;;;4.37;3.00;;;;;;;1.54;100.00;99051.66;6127575;23;20207;-76
2024/02/09 00:39:50;;;;;;;5.07;3.53;;;;;;;1.53;100.00;99037.91;6128472;23;20641;-77
2024/02/09 00:42:18;;;;;;;5.47;3.27;;;;;;;1.54;100.00;99049.81;6128185;23;20207;-76
2024/02/09 00:44:44;;;;;;;4.70;3.30;;;;;;;1.53;100.00;99045.69;6128690;23;20245;-77
2024/02/09 00:47:11;;;;;;;5.07;3.20;;;;;;;1.54;100.00;99043.84;6127584;23;20222;-76
2024/02/09 00:49:37;;;;;;;5.90;3.40;;;;;;;1.53;100.00;99050.91;6128255;23;20168;-76
2024/02/09 00:52:04;;;;;;;6.53;3.80;;;;;;;1.53;100.00;99052.72;6129190;23;20229;-77
2024/02/09 00:54:31;;;;;;;4.73;3.30;;;;;;;1.52;100.00;99053.78;6126334;23;20161;-76
2024/02/09 00:56:57;;;;;;;4.67;3.00;;;;;;;1.53;100.00;99042.31;6127949;23;20189;-76
2024/02/09 00:59:26;;;;;;;5.17;3.17;;;;;;;1.52;100.00;99051.19;6127654;23;20235;-77
2024/02/09 01:01:54;;;;;;;3.67;3.27;;;;;;;1.51;100.00;99039.28;6127757;23;20189;-76
2024/02/09 01:04:20;;;;;;;4.87;3.13;;;;;;;1.52;100.00;99040.78;6126970;23;20197;-77
2024/02/09 01:06:48;;;;;;;5.67;3.37;;;;;;;1.52;100.00;99041.53;6128195;23;20189;-77
2024/02/09 01:09:15;;;;;;;6.17;3.47;;;;;;;1.52;100.00;99046.75;6091937;23;20184;-76
2024/02/09 01:11:42;;;;;;;6.97;3.90;;;;;;;1.52;100.00;99044.16;6128093;23;20165;-76
2024/02/09 02:47:00;;;;;;;4.53;3.23;;;;;;;1.76;100.00;98917.00;6128794;23;20220;-77
2024/02/09 03:05:52;;;;;;;3.77;2.70;;;;;;;1.81;100.00;98906.44;6129265;23;20511;-77
2024/02/09 03:08:19;;;;;;;3.80;2.93;;;;;;;1.83;100.00;98901.69;6128004;23;20739;-76
2024/02/09 03:10:47;;;;;;;3.63;2.83;;;;;;;1.85;100.00;98899.56;6128970;23;20511;-77
2024/02/09 03:13:13;;;;;;;4.43;3.30;;;;;;;1.85;100.00;98894.34;6128932;23;20173;-76
2024/02/09 03:15:40;;;;;;;4.03;3.10;;;;;;;1.86;100.00;98895.09;6128527;23;20542;-77
2024/02/09 03:18:06;;;;;;;5.07;3.37;;;;;;;1.87;100.00;98889.59;6129350;23;20211;-76
2024/02/09 03:20:34;;;;;;;4.57;3.00;;;;;;;1.87;100.00;98892.19;6092894;23;20177;-76
2024/02/09 03:23:01;;;;;;;4.03;3.13;;;;;;;1.87;100.00;98892.19;6093611;23;20189;-76
2024/02/09 03:25:28;;;;;;;5.00;3.10;;;;;;;1.89;100.00;98881.47;6128227;23;20162;-77
2024/02/09 03:27:56;;;;;;;3.60;2.80;;;;;;;1.90;100.00;98883.78;6128530;23;20507;-76
2024/02/09 03:30:24;;;;;;;4.57;3.00;;;;;;;1.91;100.00;98877.50;6127685;23;20200;-76
2024/02/09 03:32:51;;;;;;;3.87;2.90;;;;;;;1.92;100.00;98878.28;6128311;23;20173;-76
2024/02/09 03:35:17;;;;;;;5.20;3.47;;;;;;;1.94;100.00;98879.50;6127998;23;20248;-76
2024/02/09 03:37:44;;;;;;;4.00;3.13;;;;;;;1.94;100.00;98879.50;6127361;23;20189;-76
2024/02/09 03:40:12;;;;;;;5.17;3.37;;;;;;;1.95;100.00;98870.59;6128724;23;20170;-76
2024/02/09 03:42:38;;;;;;;5.13;3.20;;;;;;;1.95;100.00;98862.03;6128140;23;20522;-76
2024/02/09 03:45:07;;;;;;;4.67;3.47;;;;;;;1.97;100.00;98868.44;6128035;23;20240;-77
2024/02/09 03:47:34;;;;;;;3.93;3.37;;;;;;;1.98;100.00;98875.16;6128614;23;20802;-76
2024/02/09 03:50:00;;;;;;;5.10;3.77;;;;;;;1.98;100.00;98869.97;6091826;23;20252;-76
2024/02/09 03:52:27;;;;;;;4.93;3.80;;;;;;;2.00;100.00;98872.25;6127371;23;20173;-77
2024/02/09 03:54:55;;;;;;;4.87;3.70;;;;;;;2.01;100.00;98871.19;6127623;23;20531;-76
2024/02/09 03:57:22;;;;;;;4.80;3.90;;;;;;;2.03;100.00;98882.06;6128260;23;20186;-77
2024/02/09 03:59:50;;;;;;;6.07;4.00;;;;;;;2.02;100.00;98876.09;6127585;23;20170;-76
2024/02/09 04:02:18;;;;;;;5.13;3.73;;;;;;;2.04;100.00;98873.19;6127220;23;20235;-77
2024/02/09 04:04:47;;;;;;;6.60;4.80;;;;;;;2.05;100.00;98882.50;6127764;23;20173;-76
2024/02/09 04:07:15;;;;;;;7.30;4.43;;;;;;;2.06;100.00;98873.63;6127807;23;20192;-77
2024/02/09 04:09:42;;;;;;;6.53;4.67;;;;;;;2.08;100.00;98874.09;6128138;23;20173;-78
2024/02/09 04:12:10;;;;;;;6.23;4.77;;;;;;;2.07;100.00;98875.19;6128994;23;20173;-77
2024/02/09 04:14:37;;;;;;;6.80;4.90;;;;;;;2.08;100.00;98861.81;6128048;23;20197;-77
2024/02/09 04:17:04;;;;;;;7.03;5.03;;;;;;;2.10;100.00;98857.09;6129013;23;20185;-78
2024/02/09 04:19:33;;;;;;;8.50;5.27;;;;;;;2.11;100.00;98852.63;6127834;23;20162;-77
2024/02/09 04:22:00;;;;;;;8.27;5.70;;;;;;;2.13;100.00;98855.72;6128991;23;20184;-77
2024/02/09 04:24:27;;;;;;;7.03;5.40;;;;;;;2.15;100.00;98846.50;6091958;23;20556;-76
2024/02/09 04:26:54;;;;;;;7.60;5.70;;;;;;;2.16;100.00;98852.47;6126814;23;20208;-76
2024/02/09 04:29:22;;;;;;;9.07;5.73;;;;;;;2.18;100.00;98847.72;6127724;23;20161;-76
2024/02/09 04:31:48;;;;;;;7.70;5.33;;;;;;;2.20;100.00;98843.72;6127024;23;20169;-76
2024/02/09 04:34:15;;;;;;;9.13;6.40;;;;;;;2.20;100.00;98832.53;6127617;23;20165;-76
2024/02/09 04:36:45;;;;;;;7.53;5.90;;;;;;;2.21;100.00;98827.03;6090708;23;20204;-76
2024/02/09 04:39:12;;;;;;;8.57;5.60;;;;;;;2.22;100.00;98833.75;6127705;23;20165;-77
2024/02/09 04:41:39;;;;;;;7.53;5.80;;;;;;;2.24;100.00;98833.44;6128820;23;20204;-78
2024/02/09 04:44:06;;;;;;;8.03;5.40;;;;;;;2.25;100.00;98835.75;6127707;23;20161;-77
2024/02/09 04:46:33;;;;;;;11.00;6.80;;;;;;;2.26;100.00;98834.66;6126748;23;20196;-77
2024/02/09 04:49:00;;;;;;;10.87;7.30;;;;;;;2.28;100.00;98829.16;6127599;23;20197;-76
2024/02/09 04:51:26;;;;;;;8.67;6.20;;;;;;;2.28;100.00;98823.94;6092094;23;20177;-77
2024/02/09 04:53:54;;;;;;;8.13;5.57;;;;;;;2.30;100.00;98813.97;6128405;23;20193;-77
2024/02/09 04:56:24;;;;;;;6.90;5.33;;;;;;;2.30;100.00;98806.16;6093139;23;20180;-77
2024/02/09 04:58:51;;;;;;;8.77;5.33;;;;;;;2.30;100.00;98806.16;6093004;23;20249;-77
2024/02/09 05:01:26;;;;;;;7.53;5.33;;;;;;;2.32;100.00;98796.19;6128351;23;20165;-77
2024/02/09 05:03:52;;;;;;;8.17;5.23;;;;;;;2.32;100.00;98793.56;6129317;23;20171;-77
2024/02/09 05:06:20;;;;;;;9.10;5.73;;;;;;;2.33;100.00;98782.09;6094181;23;20173;-77
2024/02/09 05:08:47;;;;;;;7.00;4.90;;;;;;;2.34;100.00;98773.94;6129404;23;20169;-77
2024/02/09 05:11:15;;;;;;;11.87;8.40;;;;;;;2.34;100.00;98776.56;6093735;23;20289;-77
2024/02/09 05:13:41;;;;;;;8.87;6.00;;;;;;;2.36;100.00;98778.84;6129952;23;20678;-76
2024/02/09 05:16:08;;;;;;;14.63;9.47;;;;;;;2.36;100.00;98774.41;6129784;23;20162;-77
2024/02/09 05:18:35;;;;;;;7.73;5.60;;;;;;;2.37;100.00;98767.34;6129652;23;20523;-77
2024/02/09 05:21:01;;;;;;;11.87;7.73;;;;;;;2.38;100.00;98767.03;6093981;23;20170;-77
2024/02/09 05:23:28;;;;;;;9.07;6.57;;;;;;;2.38;100.00;98761.84;6093675;23;20813;-77
2024/02/09 05:25:54;;;;;;;8.97;5.90;;;;;;;2.41;100.00;98766.44;6129897;23;20616;-76
2024/02/09 05:28:23;;;;;;;9.73;6.77;;;;;;;2.40;100.00;98754.50;6093819;23;20197;-77
2024/02/09 05:30:49;;;;;;;7.83;5.47;;;;;;;2.42;100.00;98761.97;6129633;23;20555;-77
2024/02/09 05:33:16;;;;;;;8.03;5.90;;;;;;;2.42;100.00;98759.34;6129395;23;20195;-77
2024/02/09 05:35:43;;;;;;;10.90;8.13;;;;;;;2.43;100.00;98753.06;6125576;23;20172;-77
2024/02/09 05:38:10;;;;;;;8.37;7.03;;;;;;;2.43;100.00;98756.44;6129061;23;20546;-77
2024/02/09 05:40:36;;;;;;;8.50;5.87;;;;;;;2.43;100.00;98742.66;6128373;23;20691;-76
2024/02/09 05:43:03;;;;;;;8.70;5.57;;;;;;;2.44;100.00;98754.63;6128836;23;20236;-77
2024/02/09 05:45:34;;;;;;;10.73;7.27;;;;;;;2.45;100.00;98741.25;6129486;23;20203;-76
2024/02/09 05:48:00;;;;;;;7.27;5.50;;;;;;;2.46;100.00;98734.22;6129436;23;20555;-76
2024/02/09 05:50:27;;;;;;;9.80;6.53;;;;;;;2.46;100.00;98737.59;6129019;23;20172;-77
2024/02/09 05:52:56;;;;;;;8.47;5.80;;;;;;;2.48;100.00;98734.66;6092925;23;20174;-77
2024/02/09 05:55:23;;;;;;;7.50;5.20;;;;;;;2.48;100.00;98737.25;6128000;23;20198;-76
2024/02/09 05:57:54;;;;;;;7.27;5.30;;;;;;;2.48;100.00;98732.03;6129301;23;20189;-77
2024/02/09 06:00:21;;;;;;;7.57;5.17;;;;;;;2.49;100.00;98726.53;6128720;23;20484;-77
2024/02/09 06:02:50;;;;;;;6.57;5.03;;;;;;;2.49;100.00;98733.59;6128548;23;20185;-77
2024/02/09 06:05:16;;;;;;;6.90;5.10;;;;;;;2.50;100.00;98730.66;6127957;23;20169;-77
2024/02/09 06:07:42;;;;;;;6.93;4.90;;;;;;;2.50;100.00;98733.25;6127483;23;20201;-76
2024/02/09 06:10:10;;;;;;;6.80;5.07;;;;;;;2.52;100.00;98715.47;6127871;23;20196;-77
2024/02/09 06:12:37;;;;;;;6.67;4.90;;;;;;;2.53;100.00;98721.44;6128131;23;20161;-77
2024/02/09 06:15:05;;;;;;;6.73;4.97;;;;;;;2.54;100.00;98720.38;6128317;23;20168;-74
2024/02/09 06:17:31;;;;;;;7.07;4.80;;;;;;;2.55;100.00;98724.50;6128648;23;20651;-75
2024/02/09 06:19:59;;;;;;;6.10;4.60;;;;;;;2.55;100.00;98712.22;6128539;23;20272;-75
2024/02/09 06:22:27;;;;;;;8.00;5.53;;;;;;;2.57;100.00;98704.09;6128941;23;20504;-74
2024/02/09 06:24:54;;;;;;;7.20;5.30;;;;;;;2.58;100.00;98710.81;6130015;23;20256;-77
2024/02/09 06:27:21;;;;;;;7.60;5.40;;;;;;;2.59;100.00;98712.38;6129805;23;20184;-77
2024/02/09 06:29:49;;;;;;;6.50;5.13;;;;;;;2.60;100.00;98703.47;6128066;23;20192;-77
2024/02/09 06:32:15;;;;;;;7.53;5.30;;;;;;;2.61;100.00;98707.59;6128437;23;20221;-75
2024/02/09 06:34:42;;;;;;;8.23;4.87;;;;;;;2.62;100.00;98709.91;6128110;23;20233;-75
2024/02/09 06:37:10;;;;;;;8.07;5.30;;;;;;;2.63;100.00;98700.22;6129008;23;20185;-75
2024/02/09 06:39:36;;;;;;;7.87;5.50;;;;;;;2.63;100.00;98701.00;6129243;23;20172;-75
2024/02/09 06:42:02;;;;;;;6.77;5.07;;;;;;;2.64;100.00;98696.56;6127884;23;20235;-75
2024/02/09 06:44:30;;;;;;;9.17;5.40;;;;;;;2.66;100.00;98697.00;6092535;23;20181;-75
2024/02/09 06:46:57;;;;;;;8.60;5.90;;;;;;;2.66;100.00;98702.97;6128425;23;20216;-76
2024/02/09 06:49:28;;;;;;;7.83;5.30;;;;;;;2.68;100.00;98706.00;6128315;23;20185;-75
2024/02/09 06:51:54;;;;;;;7.30;5.43;;;;;;;2.69;100.00;98697.09;6128857;23;20169;-75
2024/02/09 06:54:22;;;;;;;6.57;4.80;;;;;;;2.71;100.00;98699.41;6127961;23;20181;-75
2024/02/09 06:56:53;;;;;;;7.77;5.73;;;;;;;2.72;100.00;98696.47;6127726;23;20476;-76
2024/02/09 06:59:19;;;;;;;7.43;5.63;;;;;;;2.73;100.00;98705.03;6128553;23;20177;-75
2024/02/09 07:01:46;;;;;;;6.70;4.90;;;;;;;2.73;100.00;98695.41;6090006;23;20177;-75
2024/02/09 07:04:16;;;;;;;9.30;5.70;;;;;;;2.76;100.00;98696.59;6125506;23;20188;-75
2024/02/09 07:06:43;;;;;;;7.60;5.57;;;;;;;2.77;100.00;98696.28;6126286;23;20524;-76
2024/02/09 07:09:13;;;;;;;8.03;5.93;;;;;;;2.79;100.00;98691.50;6126727;23;20221;-75
2024/02/09 07:11:40;;;;;;;9.20;5.23;;;;;;;2.80;100.00;98690.41;6126743;23;20232;-75
2024/02/09 07:14:07;;;;;;;8.03;5.23;;;;;;;2.81;100.00;98676.31;6093580;23;20481;-76
2024/02/09 07:16:33;;;;;;;7.50;5.40;;;;;;;2.81;100.00;98663.28;6128178;23;20189;-75
2024/02/09 07:18:59;;;;;;;11.20;6.80;;;;;;;2.83;100.00;98668.94;6128475;23;20191;-75
2024/02/09 07:21:26;;;;;;;10.00;5.30;;;;;;;2.85;100.00;98666.03;6128212;23;20191;-76
2024/02/09 07:23:52;;;;;;;12.60;6.20;;;;;;;2.88;100.00;98667.97;6128749;23;20189;-75
2024/02/09 07:26:20;;;;;;;12.20;7.03;;;;;;;2.90;100.00;98676.25;6129072;23;20253;-75
2024/02/09 07:28:47;;;;;;;8.60;5.77;;;;;;;2.93;100.00;98667.78;6126601;23;20166;-75
2024/02/09 07:31:15;;;;;;;5.87;4.70;;;;;;;2.94;100.00;98656.25;6129603;23;20162;-76
2024/02/09 07:33:41;;;;;;;9.77;5.97;;;;;;;2.96;100.00;98646.28;6128460;23;20168;-75
2024/02/09 07:36:10;;;;;;;8.33;5.73;;;;;;;2.98;100.00;98649.31;6129051;23;20161;-75
2024/02/09 07:38:36;;;;;;;9.73;6.00;;;;;;;3.00;100.00;98658.34;6128339;23;20996;-75
2024/02/09 07:41:03;;;;;;;9.00;5.73;;;;;;;3.03;100.00;98649.13;6092995;23;20180;-75
2024/02/09 07:43:29;;;;;;;8.17;6.00;;;;;;;3.07;100.00;98639.56;6128086;23;20192;-76
2024/02/09 07:45:57;;;;;;;12.53;6.50;;;;;;;3.08;100.00;98667.94;6128452;23;20253;-76
2024/02/09 07:48:24;;;;;;;8.50;6.57;;;;;;;3.12;100.00;98652.41;6127098;23;20534;-75
2024/02/09 07:50:52;;;;;;;7.87;5.80;;;;;;;3.14;100.00;98637.97;6127309;23;20364;-75
2024/02/09 07:53:19;;;;;;;13.00;8.20;;;;;;;3.17;100.00;98645.13;6128091;23;20566;-75
2024/02/09 07:55:45;;;;;;;10.03;6.13;;;;;;;3.20;100.00;98662.75;6127129;23;20168;-75
2024/02/09 07:58:12;;;;;;;9.00;6.40;;;;;;;3.23;100.00;98656.91;6092253;23;20241;-75
2024/02/09 08:00:38;;;;;;;10.60;6.10;;;;;;;3.26;100.00;98647.66;6128866;23;20162;-75
2024/02/09 08:03:06;;;;;;;10.17;5.90;;;;;;;3.27;100.00;98636.88;6127790;23;20185;-75
2024/02/09 08:05:35;;;;;;;12.17;7.10;;;;;;;3.30;100.00;98623.22;6128073;23;20510;-76
2024/02/09 08:08:01;;;;;;;10.13;6.97;;;;;;;3.33;100.00;98642.66;6127042;23;20186;-75
2024/02/09 08:10:28;;;;;;;9.53;6.33;;;;;;;3.36;100.00;98637.56;6092343;23;20174;-75
2024/02/09 08:12:54;;;;;;;11.00;7.00;;;;;;;3.41;100.00;98628.75;6128815;23;20166;-75
2024/02/09 08:15:20;;;;;;;8.87;6.43;;;;;;;3.43;100.00;98624.72;6128337;23;20678;-75
2024/02/09 08:17:50;;;;;;;8.23;6.20;;;;;;;3.46;100.00;98631.91;6127850;23;20192;-76
2024/02/09 08:20:19;;;;;;;9.73;6.67;;;;;;;3.48;100.00;98621.16;6093469;23;20248;-76
2024/02/09 08:22:46;;;;;;;8.33;5.77;;;;;;;3.52;100.00;98622.78;6127493;23;20637;-75
2024/02/09 08:25:13;;;;;;;10.27;6.37;;;;;;;3.56;100.00;98618.44;6128042;23;20171;-75
2024/02/09 08:27:40;;;;;;;14.60;8.80;;;;;;;3.60;100.00;98615.94;6127806;23;20181;-75
2024/02/09 08:30:08;;;;;;;10.43;6.87;;;;;;;3.62;100.00;98624.97;6092255;23;20256;-75
2024/02/09 08:32:35;;;;;;;13.73;7.30;;;;;;;3.66;100.00;98614.63;6128550;23;20669;-75
2024/02/09 08:35:02;;;;;;;9.23;6.33;;;;;;;3.69;100.00;98613.97;6127807;23;20197;-76
2024/02/09 08:37:30;;;;;;;11.17;5.97;;;;;;;3.73;100.00;98620.06;6128457;23;20186;-75
2024/02/09 08:39:57;;;;;;;8.67;6.60;;;;;;;3.77;100.00;98620.91;6125680;23;20262;-75
2024/02/09 08:42:24;;;;;;;11.47;7.93;;;;;;;3.79;100.00;98616.88;6127132;23;20193;-75
2024/02/09 08:44:50;;;;;;;10.27;7.60;;;;;;;3.85;100.00;98609.63;6127273;23;20194;-76
2024/02/09 08:47:16;;;;;;;13.00;7.30;;;;;;;3.89;100.00;98607.88;6127636;23;20270;-76
2024/02/09 08:49:44;;;;;;;13.90;8.03;;;;;;;3.93;100.00;98606.88;6092502;23;20184;-76
2024/02/09 08:52:11;;;;;;;11.73;7.80;;;;;;;3.98;100.00;98606.66;6128638;23;20713;-75
2024/02/09 08:54:39;;;;;;;12.60;8.00;;;;;;;4.03;100.00;98603.81;6126090;23;20177;-76
2024/02/09 08:57:49;;;;;;;13.40;8.03;;;;;;;4.10;100.00;98603.25;6127307;23;20185;-75
2024/02/09 09:00:16;;;;;;;15.73;8.43;;;;;;;4.17;100.00;98600.84;6089796;23;20626;-75
2024/02/09 09:02:43;;;;;;;15.50;9.73;;;;;;;4.22;100.00;98598.78;6127124;23;20165;-75
2024/02/09 09:05:09;;;;;;;13.93;7.83;;;;;;;4.30;100.00;98594.50;6127843;23;20166;-75
2024/02/09 09:07:35;;;;;;;12.53;8.60;;;;;;;4.36;100.00;98606.22;6128521;23;20181;-75
2024/02/09 09:10:05;;;;;;;12.47;8.47;;;;;;;4.42;100.00;98605.69;6127585;23;20196;-75
2024/02/09 09:12:32;;;;;;;13.93;8.60;;;;;;;4.51;100.00;98595.06;6127626;23;20176;-75
2024/02/09 09:14:59;;;;;;;16.60;9.17;;;;;;;4.57;100.00;98596.34;6127799;23;20176;-75
2024/02/09 09:17:25;;;;;;;18.77;9.23;;;;;;;4.65;100.00;98590.19;6127142;23;20267;-75
2024/02/09 09:19:52;;;;;;;14.40;9.20;;;;;;;4.74;100.00;98583.75;6127358;23;20173;-75
2024/02/09 09:22:18;;;;;;;16.57;10.17;;;;;;;4.82;100.00;98595.16;6127772;23;20162;-75
2024/02/09 09:24:45;;;;;;;16.00;9.50;;;;;;;4.88;100.00;98586.69;6128168;23;20182;-75
2024/02/09 09:27:12;;;;;;;16.23;9.40;;;;;;;4.99;100.00;98592.97;6127312;23;20185;-76
2024/02/09 09:29:39;;;;;;;16.33;10.70;;;;;;;5.08;100.00;98584.97;6091397;23;20170;-76
2024/02/09 09:32:06;;;;;;;18.87;10.50;;;;;;;5.19;100.00;98593.81;6126147;23;20172;-75
2024/02/09 09:34:33;;;;;;;21.00;11.43;;;;;;;5.25;100.00;98585.41;6127021;23;20170;-75
2024/02/09 09:36:59;;;;;;;18.73;11.30;;;;;;;5.36;100.00;98591.63;6127075;23;20181;-75
2024/02/09 09:39:26;;;;;;;28.13;15.97;;;;;;;5.46;100.00;98587.72;6127571;23;20622;-75
2024/02/09 09:41:55;;;;;;;20.83;11.07;;;;;;;5.54;100.00;98590.16;6129174;23;20165;-75
2024/02/09 09:44:26;;;;;;;21.10;10.57;;;;;;;5.64;100.00;98596.75;6128868;23;20194;-75
2024/02/09 09:46:53;;;;;;;28.47;12.27;;;;;;;5.73;100.00;98592.06;6129045;23;20201;-75
2024/02/09 09:49:22;;;;;;;22.87;11.40;;;;;;;5.81;100.00;98594.53;6128934;23;20326;-75
2024/02/09 09:51:51;;;;;;;20.93;12.30;;;;;;;5.89;100.00;98584.97;6128843;23;20671;-75
2024/02/09 09:54:21;;;;;;;24.50;11.47;;;;;;;6.01;100.00;98597.97;6127623;23;20157;-75
2024/02/09 09:56:49;;;;;;;19.53;11.03;;;;;;;6.08;100.00;98596.25;6129084;23;20189;-75
2024/02/09 09:59:17;;;;;;;22.53;12.33;;;;;;;6.19;100.00;98591.22;6128431;23;20169;-75
2024/02/09 10:01:46;;;;;;;25.70;12.97;;;;;;;6.27;100.00;98592.88;6129092;23;20193;-75
2024/02/09 10:04:12;;;;;;;24.27;13.30;;;;;;;6.39;100.00;98587.50;6128668;23;20212;-75
2024/02/09 10:06:38;;;;;;;23.43;10.97;;;;;;;6.46;100.00;98583.16;6092929;23;20196;-75
2024/02/09 10:09:08;;;;;;;21.57;11.37;;;;;;;6.56;100.00;98581.81;6127649;23;20411;-75
2024/02/09 10:11:35;;;;;;;24.40;12.73;;;;;;;6.65;100.00;98572.66;6128182;23;20641;-76
2024/02/09 10:14:01;;;;;;;20.00;12.40;;;;;;;6.74;100.00;98570.53;6129294;23;20162;-75
2024/02/09 10:16:28;;;;;;;27.67;12.57;;;;;;;6.83;100.00;98568.47;6129606;23;20643;-75
2024/02/09 10:18:55;;;;;;;24.10;13.13;;;;;;;6.94;100.00;98568.66;6127994;23;20196;-75
2024/02/09 10:21:22;;;;;;;27.67;12.53;;;;;;;7.02;100.00;98571.06;6127646;23;20253;-75
2024/02/09 10:23:48;;;;;;;21.07;12.23;;;;;;;7.13;100.00;98579.84;6127502;23;20749;-75
2024/02/09 10:26:14;;;;;;;22.37;12.13;;;;;;;7.22;100.00;98567.25;6127534;23;20628;-75
2024/02/09 10:28:41;;;;;;;24.63;9.97;;;;;;;7.31;100.00;98562.50;6127994;23;20176;-75
2024/02/09 10:31:07;;;;;;;23.83;9.60;;;;;;;7.40;100.00;98562.28;6127842;23;20232;-75
2024/02/09 10:33:34;;;;;;;21.40;10.13;;;;;;;7.50;100.00;98557.16;6126634;23;20171;-75
2024/02/09 10:36:02;;;;;;;18.33;9.57;;;;;;;7.60;100.00;98556.56;6126841;23;20198;-75
2024/02/09 10:38:31;;;;;;;22.40;9.90;;;;;;;7.71;100.00;98560.09;6128356;23;20193;-75
2024/02/09 10:40:59;;;;;;;24.50;10.53;;;;;;;7.83;100.00;98546.75;6092131;23;20184;-75
2024/02/09 10:43:27;;;;;;;15.60;7.97;;;;;;;7.96;100.00;98549.91;6128582;23;20253;-76
2024/02/09 10:45:54;;;;;;;16.10;7.80;;;;;;;8.06;100.00;98552.69;6127479;23;20485;-75
2024/02/09 10:48:23;;;;;;;16.20;8.27;;;;;;;8.20;100.00;98552.88;6075524;23;20293;-75
2024/02/09 10:50:54;;;;;;;13.10;7.07;;;;;;;8.29;100.00;98548.09;6068556;23;20703;-75
2024/02/09 10:53:23;;;;;;;18.27;7.90;;;;;;;8.42;100.00;98551.22;6070540;23;20202;-75
2024/02/09 10:56:02;;;;;;;14.53;7.47;;;;;;;8.50;100.00;98553.56;6068580;23;20181;-75
2024/02/09 10:58:31;;;;;;;13.87;6.47;;;;;;;8.61;100.00;98549.19;6058213;23;20524;-76
2024/02/09 11:00:58;;;;;;;13.37;6.43;;;;;;;8.68;100.00;98549.25;6067914;23;20173;-75
2024/02/09 11:03:25;;;;;;;16.23;6.60;;;;;;;8.77;100.00;98549.72;6056513;23;20171;-76
2024/02/09 11:05:52;;;;;;;8.50;5.00;;;;;;;8.85;100.00;98547.94;6067480;23;20173;-75
2024/02/09 11:08:20;;;;;;;7.23;3.97;;;;;;;8.93;100.00;98545.00;6068445;23;20636;-75
2024/02/09 11:10:57;;;;;;;11.17;5.33;;;;;;;8.99;100.00;98537.50;6069675;23;20166;-75
2024/02/09 11:13:24;;;;;;;8.20;4.37;;;;;;;9.04;100.00;98535.31;6069671;23;20245;-76
2024/02/09 11:15:55;;;;;;;5.87;3.97;;;;;;;9.09;100.00;98527.06;6070239;23;20210;-76
2024/02/09 11:18:21;;;;;;;12.63;4.80;;;;;;;9.14;100.00;98537.25;6069154;23;20189;-75
2024/02/09 11:20:48;;;;;;;12.33;4.60;;;;;;;9.21;100.00;98536.56;6058500;23;20179;-76
2024/02/09 11:23:14;;;;;;;7.83;4.07;;;;;;;9.27;100.00;98537.75;6067518;23;20516;-76
2024/02/09 11:25:45;;;;;;;6.63;3.90;;;;;;;9.33;100.00;98531.00;6069439;23;20648;-75
2024/02/09 11:28:13;;;;;;;8.77;4.33;;;;;;;9.40;100.00;98528.41;6057779;23;20236;-75
2024/02/09 11:30:41;;;;;;;6.70;3.83;;;;;;;9.47;100.00;98537.13;6069107;23;20171;-76
2024/02/09 11:33:10;;;;;;;7.70;4.60;;;;;;;9.54;100.00;98541.69;6069046;23;20170;-75
2024/02/09 11:35:37;;;;;;;6.27;5.63;;;;;;;9.57;100.00;98540.97;6069721;23;20163;-75
2024/02/09 11:38:05;;;;;;;6.30;3.87;;;;;;;9.62;100.00;98532.72;6069036;23;20707;-76
2024/02/09 11:40:31;;;;;;;12.47;5.70;;;;;;;9.63;100.00;98540.22;6068297;23;20167;-75
2024/02/09 11:42:57;;;;;;;9.07;4.90;;;;;;;9.66;100.00;98542.13;6068983;23;20252;-76
2024/02/09 11:45:25;;;;;;;8.50;3.77;;;;;;;9.68;100.00;98539.13;6069678;23;20183;-75
2024/02/09 11:47:52;;;;;;;4.90;3.23;;;;;;;9.69;100.00;98538.00;6089055;23;20939;-76
2024/02/09 11:50:22;;;;;;;6.53;3.43;;;;;;;9.69;100.00;98546.66;6062588;23;20177;-75
2024/02/09 11:52:50;;;;;;;6.47;2.90;;;;;;;9.71;100.00;98541.03;6097947;23;20186;-76
2024/02/09 11:55:16;;;;;;;4.63;2.97;;;;;;;9.71;100.00;98544.41;6096059;23;20221;-75
2024/02/09 11:57:44;;;;;;;3.30;2.47;;;;;;;9.73;100.00;98546.69;6097337;23;20182;-75
2024/02/09 12:00:13;;;;;;;5.63;3.17;;;;;;;9.73;100.00;98552.72;6096907;23;20370;-75
2024/02/09 12:02:40;;;;;;;3.00;2.30;;;;;;;9.73;100.00;98546.69;6097474;23;20229;-75
2024/02/09 12:05:08;;;;;;;4.57;2.87;;;;;;;9.75;100.00;98534.66;6098873;23;20277;-76
2024/02/09 12:07:35;;;;;;;4.40;2.50;;;;;;;9.75;100.00;98532.03;6097618;23;20186;-75
2024/02/09 12:10:04;;;;;;;5.20;2.57;;;;;;;9.77;100.00;98531.63;6098270;23;20351;-75
2024/02/09 12:12:30;;;;;;;5.57;2.60;;;;;;;9.78;100.00;98533.16;6098133;23;20643;-76
2024/02/09 12:14:57;;;;;;;5.67;2.93;;;;;;;9.78;100.00;98527.91;6062335;23;20171;-75
2024/02/09 12:17:24;;;;;;;3.53;2.37;;;;;;;9.78;100.00;98531.28;6096595;23;20221;-76
2024/02/09 12:19:52;;;;;;;4.73;2.37;;;;;;;9.79;100.00;98529.41;6097427;23;20647;-75
2024/02/09 12:22:19;;;;;;;3.80;2.63;;;;;;;9.79;100.00;98526.78;6096956;23;20721;-75
2024/02/09 12:24:47;;;;;;;5.70;2.70;;;;;;;9.79;100.00;98527.50;6098109;23;20192;-75
2024/02/09 12:27:14;;;;;;;6.87;3.33;;;;;;;9.81;100.00;98533.19;6097340;23;20604;-75
2024/02/09 12:29:41;;;;;;;5.03;3.53;;;;;;;9.81;100.00;98527.91;6097985;23;20171;-75
2024/02/09 12:32:09;;;;;;;4.17;3.17;;;;;;;9.83;100.00;98530.19;6097043;23;20166;-75
2024/02/09 12:34:43;;;;;;;6.40;3.80;;;;;;;9.86;100.00;98529.44;6097179;23;20247;-75
2024/02/09 12:37:15;;;;;;;6.60;3.30;;;;;;;9.86;100.00;98524.94;6095894;23;20221;-76
2024/02/09 12:39:42;;;;;;;6.50;3.40;;;;;;;9.89;100.00;98515.53;6096289;23;20169;-75
2024/02/09 12:45:55;;;;;;;6.30;4.20;;;;;;;9.94;100.00;98526.44;6094143;23;20204;-76
2024/02/09 12:48:21;;;;;;;5.73;3.63;;;;;;;9.97;100.00;98517.81;6097029;23;20215;-76
2024/02/09 12:50:51;;;;;;;6.73;3.93;;;;;;;10.01;100.00;98517.81;6096467;23;20221;-76
2024/02/09 12:53:43;;;;;;;5.30;3.93;;;;;;;10.04;100.00;98525.78;6061408;23;20185;-75
2024/02/09 12:59:57;;;;;;;9.83;4.70;;;;;;;10.11;100.00;98525.81;6075208;23;20679;-75
2024/02/09 13:02:23;;;;;;;6.63;4.13;;;;;;;10.14;100.00;98527.69;6097772;23;20670;-75
2024/02/09 13:04:50;;;;;;;6.10;4.00;;;;;;;10.17;100.00;98520.94;6096452;23;20214;-75
2024/02/09 13:08:03;;;;;;;8.03;4.30;;;;;;;10.21;100.00;98516.44;6097281;23;20191;-75
2024/02/09 13:10:33;;;;;;;7.13;4.40;;;;;;;10.24;100.00;98515.69;6095282;23;20637;-75
2024/02/09 13:13:06;;;;;;;9.50;5.10;;;;;;;10.27;100.00;98514.94;6096622;23;20493;-75
2024/02/09 13:15:33;;;;;;;7.20;4.33;;;;;;;10.30;100.00;98524.75;6098850;23;20176;-75
2024/02/09 13:21:52;;;;;;;6.43;3.80;;;;;;;10.31;100.00;98516.44;6099070;23;20551;-75
2024/02/09 13:24:20;;;;;;;4.77;3.27;;;;;;;10.31;100.00;98521.72;6099649;23;20786;-75
2024/02/09 13:26:50;;;;;;;5.10;3.30;;;;;;;10.31;100.00;98521.72;6099578;23;20187;-75
2024/02/09 13:29:16;;;;;;;5.27;3.80;;;;;;;10.31;100.00;98519.09;6099594;23;20590;-75
2024/02/09 13:31:42;;;;;;;5.17;3.33;;;;;;;10.35;100.00;98524.38;6099180;23;20171;-75